Startpagina
METAR-TAF:

METAR-TAF

Vliegvelden :

Luchthaven Quatro de Fevereiro

Luanda, Angola

breedte: 08-51S, lengte: 013-14E, hoogte: 74 m

Actueel weer

Dit bericht is 21 minuten geleden gemaakt, om 17:00 UTC
Wind 9 kt uit het westzuidwesten
Temperatuur 29°C
Vochtigheid 66%
Druk 1007 hPa
Zicht 10 km of meer
Weinig wolken op 2000 ft

METAR: FNLU 261700Z 25009KT 9999 FEW020 29/22 Q1007 NOSIG

Tijdstip: 18:21 (17:21 UTC)

Verwachting

Dit bericht is 6 uur en het 21 minuten geleden gemaakt, om 11:00 UTC
Verwachting geldig van 26 om 12 UTC tot 27 om 18 UTC
Wind 10 kt uit het zuidwesten
Zicht 10 km of meer
Verspreide wolken op 1800 ft
Gebroken wolken op 2200 ft
Tijdelijke
van 26 om 14 UTC tot 26 om 18 UTC
Wind 12 kt uit het zuidwesten
Wijzigt naar
van 26 om 20 UTC tot 26 om 23 UTC
Zicht: 8000 m
Gebroken wolken op 2000 ft
Tijdelijke
van 27 om 03 UTC tot 27 om 07 UTC
Wind 5 kt uit het zuidoosten

TAF: FNLU 261100Z 2612/2718 22010KT 9999 SCT018 BKN022 TEMPO 2614/2618 22012KT BECMG 2620/2623 8000 BKN020 TEMPO 2703/2707 13005KT

Waarnemingen en weersverwachtingen van meer dan 4000 vliegvelden (METAR en TAF).

De beschikbare stations zijn de gele en rode punten op de kaart.

Ga met uw muis naar het station om de naam te zien.

Klik dan om waarnemingen en weersverwachtingen te zien.

kaart wijzigen: klik op de groene knoppen met een zwart kruis om in te zoomen, op de groene knop met een streepje om uit te zoomen of op de groene pijlen voor aangrenzende kaarten.


METAR-TAF: